Time;durP1;ratioP1;P1;durP2;ratioP2;P2;SDS_P1;SDS_P2;PMS_P1;PMS_P2;Temp;Humidity;BMP_temperature;BMP_pressure;BME280_temperature;BME280_humidity;BME280_pressure;Samples;Min_cycle;Max_cycle;Signal;HPM_P1;HPM_P2
2022/01/22 00:00:06;;;;;;;4.75;2.45;;;;;;;-1.43;53.19;100145.47;5051511;28;20027;-36
2022/01/22 00:02:32;;;;;;;5.35;2.25;;;;;;;-1.65;53.53;100130.59;5051405;28;20036;-36
2022/01/22 00:04:57;;;;;;;4.50;2.50;;;;;;;-1.66;53.77;100154.19;5050920;28;20021;-36
2022/01/22 00:07:23;;;;;;;5.80;2.13;;;;;;;-1.69;54.02;100131.78;5050126;28;20099;-36
2022/01/22 00:09:59;;;;;;;3.30;2.45;;;;;;;-1.74;54.95;100154.75;5050864;28;20053;-36
2022/01/22 00:12:41;;;;;;;3.92;2.25;;;;;;;-1.86;53.70;100145.25;5051380;28;20102;-36
2022/01/22 00:15:09;;;;;;;4.88;2.15;;;;;;;-1.85;54.22;100142.50;5050523;28;20653;-36
2022/01/22 00:17:34;;;;;;;7.22;2.67;;;;;;;-1.94;54.75;100131.94;5050831;28;20033;-37
2022/01/22 00:20:00;;;;;;;3.35;2.13;;;;;;;-1.94;54.92;100131.94;5051555;28;20048;-36
2022/01/22 00:22:29;;;;;;;5.65;1.92;;;;;;;-1.99;54.89;100133.09;5051328;28;20365;-36
2022/01/22 00:24:58;;;;;;;5.10;2.03;;;;;;;-2.01;54.28;100140.22;5051063;28;20473;-36
2022/01/22 00:27:24;;;;;;;3.35;1.83;;;;;;;-1.84;54.94;100145.97;5051573;28;20117;-36
2022/01/22 00:29:49;;;;;;;3.03;1.88;;;;;;;-2.15;53.98;100135.19;5051185;28;20017;-34
2022/01/22 00:32:15;;;;;;;5.15;2.13;;;;;;;-1.91;53.52;100137.75;5051472;28;20025;-36
2022/01/22 00:34:40;;;;;;;6.13;2.10;;;;;;;-1.96;53.68;100126.84;5050544;28;20009;-37
2022/01/22 00:37:06;;;;;;;4.25;2.00;;;;;;;-1.98;53.38;100132.16;5050418;28;20463;-37
2022/01/22 00:39:33;;;;;;;3.55;2.03;;;;;;;-1.68;53.56;100111.72;5050685;28;20024;-36
2022/01/22 00:41:58;;;;;;;3.83;2.38;;;;;;;-1.53;52.72;100109.72;5050822;28;20040;-36
2022/01/22 00:44:25;;;;;;;6.00;2.50;;;;;;;-1.82;53.54;100131.84;5050400;28;20025;-36
2022/01/22 00:46:51;;;;;;;5.25;2.45;;;;;;;-1.75;53.81;100137.47;5050691;28;20017;-36
2022/01/22 00:49:17;;;;;;;3.88;1.90;;;;;;;-1.54;54.02;100121.97;5050638;28;20454;-37
2022/01/22 00:51:42;;;;;;;3.15;1.98;;;;;;;-1.79;52.45;100134.25;5050956;28;20032;-37
2022/01/22 00:54:08;;;;;;;3.38;2.05;;;;;;;-1.87;52.82;100135.75;5050731;28;20039;-37
2022/01/22 00:56:33;;;;;;;4.70;2.40;;;;;;;-1.66;52.48;100135.91;5050068;28;20432;-37
2022/01/22 00:58:58;;;;;;;4.15;2.20;;;;;;;-1.93;52.31;100124.00;5050231;28;20021;-36
2022/01/22 01:01:24;;;;;;;4.78;2.40;;;;;;;-1.89;52.18;100120.19;5050184;28;20016;-37
2022/01/22 01:03:49;;;;;;;4.50;2.35;;;;;;;-2.00;50.64;100123.63;5050514;28;20036;-37
2022/01/22 01:06:15;;;;;;;6.07;2.63;;;;;;;-1.94;50.48;100126.72;5049530;28;20055;-36
2022/01/22 01:08:42;;;;;;;6.63;2.85;;;;;;;-1.92;50.55;100124.81;5050475;28;20453;-37
2022/01/22 01:11:09;;;;;;;5.15;2.20;;;;;;;-2.06;51.80;100113.63;5050521;28;20041;-36
2022/01/22 01:13:41;;;;;;;5.35;2.28;;;;;;;-1.92;50.93;100110.00;5050434;28;20147;-36
2022/01/22 01:16:44;;;;;;;5.00;2.60;;;;;;;-1.83;53.00;100114.56;5049876;28;20091;-36
2022/01/22 01:33:03;;;;;;;4.03;2.03;;;;;;;-1.91;50.65;100116.06;5030711;28;20029;-36
2022/01/22 01:35:30;;;;;;;3.80;2.10;;;;;;;-2.11;49.90;100110.53;5030105;28;20079;-36
2022/01/22 01:37:58;;;;;;;3.72;2.13;;;;;;;-1.99;50.91;100104.41;5030452;28;20025;-36
2022/01/22 01:40:25;;;;;;;4.82;2.40;;;;;;;-2.10;51.15;100095.72;5029955;28;20430;-36
2022/01/22 01:45:22;;;;;;;4.50;2.50;;;;;;;-2.14;50.81;100089.06;5029417;28;20445;-36
2022/01/22 01:48:01;;;;;;;3.63;2.17;;;;;;;-2.25;49.44;100092.47;5029596;28;20033;-37
2022/01/22 01:50:27;;;;;;;4.95;2.22;;;;;;;-2.24;50.31;100091.53;5029652;28;20452;-37
2022/01/22 01:53:25;;;;;;;3.50;2.10;;;;;;;-2.19;50.52;100092.84;5029725;28;20074;-37
2022/01/22 01:58:13;;;;;;;4.80;2.15;;;;;;;-2.03;49.21;100099.53;5029696;28;20114;-36
2022/01/22 02:00:38;;;;;;;6.70;2.30;;;;;;;-1.92;49.89;100083.06;5061570;28;20025;-36
2022/01/22 02:03:04;;;;;;;4.97;2.10;;;;;;;-2.08;49.22;100079.00;5029571;28;20034;-36
2022/01/22 02:05:31;;;;;;;6.15;2.40;;;;;;;-1.94;49.33;100079.75;5029017;28;20492;-36
2022/01/22 02:07:57;;;;;;;2.90;1.83;;;;;;;-1.83;49.36;100082.38;5028984;28;20033;-36
2022/01/22 02:10:27;;;;;;;4.43;2.20;;;;;;;-1.65;49.69;100077.56;5044485;28;20079;-36
2022/01/22 02:23:36;;;;;;;4.65;2.50;;;;;;;-1.53;47.79;100074.00;5053370;28;20036;-35
2022/01/22 02:26:05;;;;;;;4.97;2.00;;;;;;;-1.49;48.44;100077.22;5053296;28;20025;-36
2022/01/22 02:28:31;;;;;;;6.88;2.25;;;;;;;-1.60;48.35;100071.06;5053525;28;20033;-36
2022/01/22 02:31:06;;;;;;;2.70;2.15;;;;;;;-1.40;47.31;100069.50;5053637;28;20025;-36
2022/01/22 02:33:49;;;;;;;4.78;2.30;;;;;;;-1.45;48.13;100060.38;5053447;28;20025;-36
2022/01/22 02:36:26;;;;;;;4.18;2.55;;;;;;;-1.89;49.07;100067.19;5053237;28;20089;-35
2022/01/22 02:44:33;;;;;;;5.35;2.60;;;;;;;-1.46;48.83;100058.72;5053102;28;20039;-36
2022/01/22 02:47:00;;;;;;;4.80;2.30;;;;;;;-1.94;50.80;100059.72;5053192;28;20025;-36
2022/01/22 02:49:25;;;;;;;4.63;2.50;;;;;;;-2.04;49.72;100056.97;5052890;28;20132;-36
2022/01/22 02:51:50;;;;;;;3.72;2.20;;;;;;;-1.95;51.38;100059.84;5053125;28;20063;-35
2022/01/22 02:54:16;;;;;;;5.32;2.53;;;;;;;-1.84;50.86;100065.09;5052815;28;20036;-36
2022/01/22 02:56:41;;;;;;;4.50;2.40;;;;;;;-1.56;50.51;100058.59;5052545;28;20056;-36
2022/01/22 02:59:07;;;;;;;3.83;2.38;;;;;;;-1.75;49.04;100063.53;5052413;28;20032;-36
2022/01/22 03:01:32;;;;;;;5.00;2.55;;;;;;;-1.86;49.18;100056.53;5052602;28;20029;-36
2022/01/22 03:03:58;;;;;;;4.70;2.10;;;;;;;-1.98;49.69;100048.69;5052900;28;20029;-36
2022/01/22 03:06:23;;;;;;;6.78;2.40;;;;;;;-1.81;50.12;100050.03;5052836;28;20036;-36
2022/01/22 03:08:49;;;;;;;3.97;2.20;;;;;;;-1.90;48.44;100039.47;5052462;28;20053;-36
2022/01/22 03:11:25;;;;;;;3.92;1.90;;;;;;;-1.99;49.62;100035.75;5052814;28;20032;-36
2022/01/22 03:16:32;;;;;;;3.25;2.03;;;;;;;-2.08;48.82;100039.06;5052155;28;20035;-36
2022/01/22 03:19:10;;;;;;;4.35;1.90;;;;;;;-1.88;49.07;100029.75;5052405;28;20116;-36
2022/01/22 03:21:55;;;;;;;4.00;2.20;;;;;;;-1.63;49.06;100036.53;5052719;28;20025;-36
2022/01/22 03:27:23;;;;;;;3.25;1.95;;;;;;;-2.21;50.64;100032.16;5052429;28;20051;-36
2022/01/22 03:29:50;;;;;;;4.10;2.00;;;;;;;-2.00;49.76;100034.09;5051154;28;20037;-35
2022/01/22 03:32:16;;;;;;;4.10;2.03;;;;;;;-2.27;51.53;100037.00;5052431;28;20512;-35
2022/01/22 03:35:34;;;;;;;3.58;2.35;;;;;;;-2.10;51.30;100030.53;5051590;28;20021;-36
2022/01/22 03:37:28;;;;;;;3.65;2.20;;;;;;;-1.97;50.45;100045.13;5047835;28;20040;-36
2022/01/22 03:39:54;;;;;;;4.30;2.47;;;;;;;-2.16;50.44;100042.25;5051992;28;20541;-36
2022/01/22 03:42:23;;;;;;;6.75;2.38;;;;;;;-2.02;50.19;100043.81;5052394;28;20100;-36
2022/01/22 03:44:48;;;;;;;5.00;2.50;;;;;;;-1.49;51.76;100040.69;5051612;28;20035;-35
2022/01/22 03:47:13;;;;;;;3.28;2.05;;;;;;;-2.13;50.88;100036.81;5051685;28;20025;-35
2022/01/22 03:49:39;;;;;;;3.30;2.15;;;;;;;-1.93;50.05;100034.47;5052198;28;20033;-36
2022/01/22 03:52:05;;;;;;;3.22;2.38;;;;;;;-1.90;50.86;100036.84;5052149;28;20384;-35
2022/01/22 03:54:30;;;;;;;4.78;2.50;;;;;;;-1.95;50.40;100041.59;5051271;28;20103;-36
2022/01/22 03:56:56;;;;;;;4.82;2.55;;;;;;;-2.26;50.72;100033.44;5051769;28;20473;-36
2022/01/22 03:59:21;;;;;;;5.60;2.33;;;;;;;-2.26;50.79;100025.63;5051660;28;20040;-35
2022/01/22 04:04:14;;;;;;;5.18;2.50;;;;;;;-2.06;51.13;100024.94;5051316;28;20025;-36
2022/01/22 04:09:27;;;;;;;4.20;2.10;;;;;;;-2.01;50.01;100024.63;5051449;28;20137;-35
2022/01/22 04:11:54;;;;;;;3.30;2.20;;;;;;;-2.29;50.95;100018.84;5051829;28;20043;-37
2022/01/22 04:14:24;;;;;;;4.75;2.40;;;;;;;-2.24;49.61;100018.53;5033620;28;20025;-36
2022/01/22 04:24:55;;;;;;;4.10;1.80;;;;;;;-2.24;50.52;100026.34;5051083;28;20540;-49
2022/01/22 04:27:27;;;;;;;7.38;3.65;;;;;;;-2.29;51.08;100036.28;5051026;28;20029;-49
2022/01/22 04:29:54;;;;;;;6.60;2.85;;;;;;;-2.25;50.70;100025.50;5051193;28;20083;-48
2022/01/22 04:32:20;;;;;;;9.43;3.60;;;;;;;-1.90;52.31;100036.84;5051400;28;20108;-47
2022/01/22 04:34:45;;;;;;;6.32;2.70;;;;;;;-1.89;50.47;100036.72;5050141;28;20041;-48
2022/01/22 04:37:11;;;;;;;4.60;2.40;;;;;;;-1.92;51.23;100036.13;5051015;28;20028;-47
2022/01/22 04:39:37;;;;;;;6.47;2.65;;;;;;;-2.10;51.43;100031.34;5050670;28;20033;-50
2022/01/22 04:42:03;;;;;;;4.18;2.45;;;;;;;-1.91;53.09;100040.41;5050752;28;20110;-49
2022/01/22 04:44:34;;;;;;;5.68;2.63;;;;;;;-2.42;51.15;100038.94;5050645;28;20081;-48
2022/01/22 04:47:14;;;;;;;4.47;2.30;;;;;;;-2.32;51.10;100039.09;5050665;28;20035;-51
2022/01/22 04:55:26;;;;;;;5.07;2.45;;;;;;;-1.89;50.54;100041.13;5050140;28;20400;-52
2022/01/22 04:57:52;;;;;;;6.95;2.45;;;;;;;-1.88;50.64;100035.78;5050285;28;20036;-48
2022/01/22 05:00:18;;;;;;;5.15;2.42;;;;;;;-1.89;50.30;100030.69;5049945;28;20463;-48
2022/01/22 05:02:43;;;;;;;3.75;2.30;;;;;;;-2.06;49.79;100024.13;5050249;28;20052;-49
2022/01/22 05:05:09;;;;;;;4.00;2.22;;;;;;;-2.18;50.94;100026.69;5049740;28;20032;-50
2022/01/22 05:07:34;;;;;;;4.30;2.33;;;;;;;-2.47;51.54;100023.66;5050277;28;20031;-50
2022/01/22 05:10:02;;;;;;;4.60;2.40;;;;;;;-2.12;50.77;100028.03;5049626;28;20061;-48
2022/01/22 05:12:27;;;;;;;4.95;2.60;;;;;;;-2.08;51.65;100026.84;5050182;28;20412;-48
2022/01/22 05:14:53;;;;;;;5.53;2.42;;;;;;;-1.86;49.67;100025.25;5049013;28;20025;-47
2022/01/22 05:17:19;;;;;;;7.65;2.70;;;;;;;-1.88;49.06;100021.91;5049578;28;20185;-48
2022/01/22 05:19:51;;;;;;;4.35;2.30;;;;;;;-1.75;48.22;100024.41;5045421;28;20025;-48
2022/01/22 05:24:50;;;;;;;5.25;2.75;;;;;;;-1.96;49.04;100012.06;5046881;28;20400;-49
2022/01/22 05:30:36;;;;;;;4.30;2.53;;;;;;;-1.80;50.60;100012.53;5049868;28;20120;-48
2022/01/22 05:33:15;;;;;;;6.93;3.00;;;;;;;-2.09;49.54;100012.16;5030304;28;20064;-49
2022/01/22 05:38:28;;;;;;;7.55;3.35;;;;;;;-2.19;49.79;100013.78;5049323;28;20159;-50
2022/01/22 05:40:54;;;;;;;6.00;2.30;;;;;;;-2.32;49.78;100015.63;5049552;28;20051;-50
2022/01/22 05:43:20;;;;;;;4.00;2.20;;;;;;;-2.02;49.71;100012.50;5049646;28;20094;-51
2022/01/22 05:45:45;;;;;;;5.35;2.50;;;;;;;-2.04;49.93;100017.84;5049097;28;20040;-48
2022/01/22 05:48:10;;;;;;;6.40;2.60;;;;;;;-2.03;51.58;100018.69;5049022;28;20078;-51
2022/01/22 05:50:55;;;;;;;5.32;2.08;;;;;;;-2.53;49.68;100024.13;5050083;28;20162;-48
2022/01/22 06:01:09;;;;;;;6.43;3.00;;;;;;;-1.55;49.62;100012.44;5053373;28;20024;-48
2022/01/22 06:03:34;;;;;;;7.43;3.10;;;;;;;-1.17;48.56;100012.03;5050713;28;20439;-51
2022/01/22 06:06:00;;;;;;;5.38;3.28;;;;;;;-0.93;48.41;100008.41;5049200;28;20028;-51
2022/01/22 06:08:30;;;;;;;7.88;3.67;;;;;;;-0.84;48.10;100007.69;5052203;28;20056;-50
2022/01/22 06:10:58;;;;;;;9.30;3.25;;;;;;;-0.60;47.45;100005.69;5052335;28;20021;-48
2022/01/22 06:13:30;;;;;;;5.60;2.70;;;;;;;-0.98;46.97;100000.97;5033535;28;20061;-51
2022/01/22 06:15:56;;;;;;;3.33;1.67;;;;;;;-1.08;47.10;100008.72;5045913;28;20031;-48
2022/01/22 06:18:21;;;;;;;13.13;5.97;;;;;;;-0.98;47.05;99990.50;5052941;28;20044;-48
2022/01/22 06:20:47;;;;;;;11.82;4.07;;;;;;;-0.90;47.17;100005.56;5053307;28;20028;-47
2022/01/22 06:23:12;;;;;;;8.18;3.20;;;;;;;-0.50;47.40;99995.31;5053802;28;20013;-47
2022/01/22 06:25:38;;;;;;;9.73;5.28;;;;;;;0.16;45.23;99994.22;5053182;28;20499;-49
2022/01/22 06:28:03;;;;;;;22.00;9.60;;;;;;;0.49;50.55;99998.34;5050972;28;20449;-49
2022/01/22 06:30:30;;;;;;;6.97;3.60;;;;;;;0.70;46.42;100002.69;5047981;28;20033;-47
2022/01/22 06:32:55;;;;;;;9.65;3.75;;;;;;;0.80;43.49;99993.09;5049738;28;20021;-50
2022/01/22 06:35:21;;;;;;;5.47;2.97;;;;;;;0.07;44.74;99987.16;5052432;28;20021;-49
2022/01/22 06:37:46;;;;;;;10.70;4.63;;;;;;;0.50;44.67;99983.50;5052927;28;20024;-51
2022/01/22 06:42:37;;;;;;;40.47;17.65;;;;;;;1.22;42.44;99978.94;5052885;28;20043;-51
2022/01/22 06:45:04;;;;;;;27.63;12.00;;;;;;;1.52;41.96;99970.94;5051328;28;20024;-48
2022/01/22 06:47:29;;;;;;;12.93;6.07;;;;;;;1.22;42.27;99969.28;5051394;28;20029;-50
2022/01/22 06:49:55;;;;;;;12.93;4.63;;;;;;;1.61;42.35;99961.38;5050426;28;20023;-38
2022/01/22 06:52:21;;;;;;;16.85;6.50;;;;;;;2.06;40.47;99968.63;5050230;28;20017;-38
2022/01/22 06:54:47;;;;;;;3.83;2.35;;;;;;;1.81;42.12;99967.44;5049672;28;20024;-38
2022/01/22 06:57:12;;;;;;;5.20;2.75;;;;;;;1.98;39.85;99959.78;5050853;28;20036;-38
2022/01/22 06:59:38;;;;;;;4.65;2.10;;;;;;;1.68;39.88;99959.03;5050657;28;20416;-38
2022/01/22 07:02:03;;;;;;;8.70;3.88;;;;;;;1.70;39.89;99951.84;5051010;28;20035;-37
2022/01/22 07:04:36;;;;;;;5.65;2.80;;;;;;;1.62;41.12;99956.97;5050852;28;20071;-39
2022/01/22 07:07:03;;;;;;;11.02;3.10;;;;;;;1.45;40.46;99969.84;5052070;28;20029;-36
2022/01/22 07:09:29;;;;;;;6.88;2.80;;;;;;;1.78;40.82;99961.66;5052150;28;20107;-37
2022/01/22 07:11:54;;;;;;;6.78;3.17;;;;;;;2.39;39.46;99965.59;5052033;28;20439;-37
2022/01/22 07:14:20;;;;;;;6.90;4.18;;;;;;;2.53;39.22;99970.34;5051441;28;20017;-38
2022/01/22 07:16:46;;;;;;;6.95;3.42;;;;;;;2.72;39.72;99969.44;5050169;28;20049;-37
2022/01/22 07:19:17;;;;;;;6.13;3.30;;;;;;;1.80;40.35;99963.16;5051559;28;20408;-36
2022/01/22 07:21:43;;;;;;;7.68;3.67;;;;;;;2.04;40.48;99969.75;5051636;28;20398;-36
2022/01/22 07:24:23;;;;;;;7.53;3.70;;;;;;;0.89;42.16;99965.25;5051791;28;20484;-36
2022/01/22 07:26:50;;;;;;;6.85;3.40;;;;;;;0.70;42.83;99959.00;5051514;28;20021;-36
2022/01/22 07:29:15;;;;;;;7.80;3.58;;;;;;;1.37;41.88;99959.19;5051881;28;20052;-37
2022/01/22 07:31:41;;;;;;;14.07;6.47;;;;;;;1.63;41.33;99948.94;5051365;28;20115;-41
2022/01/22 07:34:06;;;;;;;7.43;3.22;;;;;;;1.49;40.31;99939.72;5049772;28;20091;-37
2022/01/22 07:36:32;;;;;;;5.93;2.90;;;;;;;1.74;40.65;99940.09;5051070;28;20025;-39
2022/01/22 07:38:57;;;;;;;6.20;3.15;;;;;;;2.21;39.92;99939.25;5052009;28;20036;-38
2022/01/22 07:41:23;;;;;;;6.30;2.70;;;;;;;1.84;39.77;99932.19;5051585;28;20044;-39
2022/01/22 07:43:48;;;;;;;8.63;2.80;;;;;;;2.44;39.86;99935.28;5051069;28;20051;-38
2022/01/22 07:46:14;;;;;;;7.47;3.03;;;;;;;2.32;39.57;99934.66;5051019;28;20394;-37
2022/01/22 07:48:39;;;;;;;3.92;1.92;;;;;;;1.86;40.09;99925.84;5050975;28;20108;-37
2022/01/22 07:51:05;;;;;;;4.63;2.47;;;;;;;2.12;41.25;99930.47;5050825;28;20024;-38
2022/01/22 07:53:30;;;;;;;5.05;2.90;;;;;;;2.70;40.18;99927.53;5051159;28;20013;-38
2022/01/22 07:55:56;;;;;;;5.20;3.00;;;;;;;2.86;40.09;99926.06;5050109;28;20477;-37
2022/01/22 07:58:21;;;;;;;5.78;2.92;;;;;;;3.11;39.39;99925.31;5050924;28;20037;-38
2022/01/22 08:00:47;;;;;;;4.40;2.70;;;;;;;2.84;39.77;99930.66;5051016;28;20028;-39
2022/01/22 08:03:12;;;;;;;8.57;3.17;;;;;;;2.92;40.35;99920.19;5050908;28;20040;-37
2022/01/22 08:05:38;;;;;;;5.63;2.92;;;;;;;3.01;39.41;99923.72;5050676;28;20031;-38
2022/01/22 08:08:04;;;;;;;6.28;2.50;;;;;;;2.96;39.66;99923.34;5051228;28;20091;-38
2022/01/22 08:10:30;;;;;;;7.93;2.85;;;;;;;2.96;39.92;99912.84;5050881;28;20522;-37
2022/01/22 08:12:55;;;;;;;5.82;2.70;;;;;;;2.98;39.57;99931.91;5050806;28;20101;-53
2022/01/22 08:15:21;;;;;;;6.22;2.75;;;;;;;2.85;40.08;99917.31;5049606;28;20380;-40
2022/01/22 08:17:47;;;;;;;5.05;2.50;;;;;;;2.93;40.13;99924.47;5049259;28;20047;-50
2022/01/22 08:20:14;;;;;;;6.10;3.00;;;;;;;3.17;39.64;99915.16;5050000;28;20496;-53
2022/01/22 08:22:40;;;;;;;5.10;2.60;;;;;;;3.30;39.69;99907.72;5049976;28;20021;-50
2022/01/22 08:25:06;;;;;;;8.25;3.15;;;;;;;3.88;38.32;99922.94;5049333;28;20025;-50
2022/01/22 08:27:39;;;;;;;6.75;2.95;;;;;;;3.80;40.44;99917.59;5050272;28;20055;-50
2022/01/22 08:30:06;;;;;;;6.63;3.20;;;;;;;3.13;39.92;99919.91;5050268;28;20058;-51
2022/01/22 08:37:51;;;;;;;4.43;2.83;;;;;;;4.18;39.45;99909.41;5050241;28;20031;-51
2022/01/22 08:40:16;;;;;;;10.93;3.50;;;;;;;4.79;46.23;99912.75;5049835;28;20053;-49
2022/01/22 08:42:42;;;;;;;7.20;3.08;;;;;;;5.31;42.82;99899.25;5050170;28;20534;-49
2022/01/22 08:45:07;;;;;;;9.52;3.15;;;;;;;5.86;37.84;99895.91;5049722;28;20025;-49
2022/01/22 08:47:33;;;;;;;4.55;2.50;;;;;;;5.61;38.33;99889.81;5050077;28;20071;-52
2022/01/22 08:49:58;;;;;;;7.22;3.00;;;;;;;4.88;40.18;99890.66;5049977;28;20025;-38
2022/01/22 08:52:29;;;;;;;9.80;3.55;;;;;;;4.40;38.28;99892.19;5050459;28;20401;-38
2022/01/22 08:54:54;;;;;;;8.23;3.00;;;;;;;4.19;39.41;99892.59;5049385;28;20449;-37
2022/01/22 08:57:20;;;;;;;5.47;2.92;;;;;;;5.29;40.28;99888.88;5047873;28;20032;-38
2022/01/22 08:59:45;;;;;;;9.15;3.78;;;;;;;5.83;37.26;99876.94;5048620;28;20044;-37
2022/01/22 09:02:11;;;;;;;5.75;3.75;;;;;;;4.76;41.59;99884.88;5048864;28;20028;-37
2022/01/22 09:04:36;;;;;;;6.22;3.22;;;;;;;4.36;38.87;99891.72;5048611;28;20104;-38
2022/01/22 09:07:02;;;;;;;5.43;2.67;;;;;;;4.70;38.87;99878.44;5048857;28;20359;-38
2022/01/22 09:09:28;;;;;;;5.50;3.20;;;;;;;5.50;37.91;99876.97;5048588;28;20525;-37
2022/01/22 09:11:53;;;;;;;6.10;3.25;;;;;;;5.73;36.78;99868.34;5049029;28;20481;-36
2022/01/22 09:14:19;;;;;;;7.68;3.70;;;;;;;4.36;36.94;99869.78;5049518;28;20025;-37
2022/01/22 09:16:45;;;;;;;5.72;2.80;;;;;;;3.65;39.07;99866.50;5049184;28;20400;-38
2022/01/22 09:19:11;;;;;;;5.95;3.47;;;;;;;3.47;38.82;99827.91;5049045;28;20033;-37
2022/01/22 09:21:42;;;;;;;8.52;3.88;;;;;;;3.94;38.74;99862.69;5050504;28;20032;-38
2022/01/22 09:24:07;;;;;;;4.88;2.90;;;;;;;3.64;39.19;99854.34;5050757;28;20021;-37
2022/01/22 09:26:33;;;;;;;61.13;27.60;;;;;;;4.22;38.77;99844.88;5049477;28;20451;-38
2022/01/22 09:29:00;;;;;;;7.13;3.08;;;;;;;3.77;38.95;99846.00;5050159;28;20081;-37
2022/01/22 09:31:29;;;;;;;5.00;2.65;;;;;;;3.46;40.24;99836.78;5050169;28;20017;-37
2022/01/22 09:33:59;;;;;;;6.27;2.47;;;;;;;3.22;39.46;99837.47;5049786;28;20432;-38
2022/01/22 09:36:24;;;;;;;;;;;;;;;3.25;39.25;99831.06;5049855;28;20021;-38
2022/01/22 09:38:49;;;;;;;4.18;2.38;;;;;;;3.32;39.83;99822.41;5048010;28;19915;-37
2022/01/22 09:41:16;;;;;;;6.07;2.80;;;;;;;3.55;39.55;99824.50;5048862;28;20017;-37
2022/01/22 09:43:41;;;;;;;4.65;2.67;;;;;;;3.65;39.42;99812.06;5048994;28;20028;-38
2022/01/22 09:46:07;;;;;;;5.03;2.63;;;;;;;3.72;39.17;99820.97;5048351;28;20098;-37
2022/01/22 09:48:32;;;;;;;6.25;2.35;;;;;;;3.11;39.66;99803.53;5048787;28;20457;-38
2022/01/22 09:50:58;;;;;;;3.13;1.88;;;;;;;3.11;39.10;99795.63;5047933;28;20032;-38
2022/01/22 09:53:23;;;;;;;7.28;3.45;;;;;;;2.96;38.81;99786.66;5049205;28;20028;-37
2022/01/22 09:55:50;;;;;;;3.17;2.13;;;;;;;3.01;38.48;99781.72;5048894;28;20028;-38
2022/01/22 09:58:15;;;;;;;3.90;2.38;;;;;;;3.30;37.77;99777.00;5048179;28;20071;-37
2022/01/22 10:00:41;;;;;;;5.32;2.70;;;;;;;3.67;37.69;99772.41;5049328;28;20029;-39
2022/01/22 10:03:14;;;;;;;4.00;2.05;;;;;;;3.39;37.66;99767.38;5049360;28;20595;-38
2022/01/22 10:05:40;;;;;;;5.57;2.33;;;;;;;3.53;37.44;99734.38;5047249;28;20029;-37
2022/01/22 10:08:17;;;;;;;4.63;2.25;;;;;;;3.86;37.63;99760.81;5048325;28;20036;-38
2022/01/22 10:10:43;;;;;;;4.95;2.30;;;;;;;3.48;37.96;99762.97;5048735;28;20037;-38
2022/01/22 10:13:08;;;;;;;5.35;2.35;;;;;;;3.58;38.11;99757.56;5048905;28;20326;-38
2022/01/22 10:15:35;;;;;;;6.30;2.20;;;;;;;3.43;37.67;99752.91;5048673;28;20036;-38
2022/01/22 10:18:01;;;;;;;4.55;2.38;;;;;;;3.30;37.74;99740.19;5047360;28;20033;-37
2022/01/22 10:20:28;;;;;;;3.28;2.28;;;;;;;3.28;38.46;99733.44;5048383;28;20385;-37
2022/01/22 10:22:56;;;;;;;3.10;2.13;;;;;;;3.16;37.25;99743.41;5049707;28;20099;-37
2022/01/22 10:25:24;;;;;;;5.10;2.53;;;;;;;3.17;36.99;99736.34;5048823;28;20029;-37
2022/01/22 10:28:00;;;;;;;3.97;2.30;;;;;;;3.62;37.47;99737.88;5049346;28;20021;-38
2022/01/22 10:30:34;;;;;;;5.25;2.10;;;;;;;3.47;37.00;99732.38;5047672;28;20114;-37
2022/01/22 10:33:10;;;;;;;6.30;2.10;;;;;;;3.38;36.83;99728.06;5044050;28;20132;-38
2022/01/22 10:35:36;;;;;;;4.20;2.17;;;;;;;3.24;37.51;99729.47;5048700;28;20110;-38
2022/01/22 10:38:02;;;;;;;4.97;2.88;;;;;;;3.47;37.66;99733.19;5048968;28;20424;-37
2022/01/22 10:40:29;;;;;;;7.38;2.63;;;;;;;3.61;36.73;99734.41;5053354;28;20056;-38
2022/01/22 10:43:22;;;;;;;6.85;2.75;;;;;;;3.59;37.48;99723.22;5051626;28;20033;-37
2022/01/22 10:48:45;;;;;;;5.63;2.78;;;;;;;3.76;36.80;99718.00;5043245;28;20116;-48
2022/01/22 10:51:12;;;;;;;4.35;2.33;;;;;;;3.65;36.55;99721.75;5050826;28;20041;-47
2022/01/22 10:53:49;;;;;;;3.50;2.17;;;;;;;3.75;35.14;99719.81;5050546;28;20503;-51
2022/01/22 10:56:17;;;;;;;4.68;2.20;;;;;;;3.43;35.33;99717.91;5051367;28;20494;-49
2022/01/22 10:58:54;;;;;;;3.50;2.20;;;;;;;3.71;35.17;99724.59;5051950;28;20024;-52
2022/01/22 11:01:20;;;;;;;4.25;2.30;;;;;;;3.60;35.23;99716.97;5052266;28;20150;-38
2022/01/22 11:03:46;;;;;;;7.28;3.55;;;;;;;2.89;36.24;99712.81;5051954;28;20051;-38
2022/01/22 11:06:26;;;;;;;2.63;1.80;;;;;;;2.77;36.59;99712.25;5034314;28;20117;-37
2022/01/22 11:08:52;;;;;;;2.95;2.03;;;;;;;2.52;37.00;99708.63;5051791;28;20059;-38
2022/01/22 11:11:17;;;;;;;2.80;2.13;;;;;;;2.40;37.18;99708.03;5051614;28;20021;-37
2022/01/22 11:13:43;;;;;;;3.28;2.20;;;;;;;2.30;37.84;99695.00;5049894;28;20021;-37
2022/01/22 11:16:08;;;;;;;4.68;2.30;;;;;;;2.55;38.00;99705.66;5050892;28;20025;-37
2022/01/22 11:18:34;;;;;;;4.20;2.30;;;;;;;2.33;39.85;99697.28;5033086;28;20025;-37
2022/01/22 11:21:00;;;;;;;5.78;2.50;;;;;;;2.24;39.60;99687.69;5049791;28;20020;-37
2022/01/22 11:23:26;;;;;;;3.95;2.30;;;;;;;2.54;38.53;99696.16;5049665;28;20540;-38
2022/01/22 11:25:52;;;;;;;3.17;2.05;;;;;;;2.60;36.47;99698.16;5048835;28;20071;-38
2022/01/22 11:28:17;;;;;;;2.60;1.70;;;;;;;2.38;36.72;99704.75;5051414;28;20485;-37
2022/01/22 11:30:44;;;;;;;5.07;2.42;;;;;;;2.29;37.19;99690.69;5051478;28;20021;-36
2022/01/22 11:33:11;;;;;;;3.78;2.20;;;;;;;3.02;35.94;99688.75;5033858;28;20055;-37
2022/01/22 11:35:44;;;;;;;4.22;2.30;;;;;;;2.62;36.38;99684.88;5050300;28;20036;-37
2022/01/22 11:38:10;;;;;;;5.50;2.75;;;;;;;3.04;36.59;99694.66;5049420;28;20477;-37
2022/01/22 11:40:36;;;;;;;5.25;2.97;;;;;;;2.73;36.89;99669.69;5050592;28;20031;-37
2022/01/22 11:43:10;;;;;;;4.35;2.38;;;;;;;2.52;39.03;99677.91;5051583;28;20113;-37
2022/01/22 11:45:46;;;;;;;3.83;2.40;;;;;;;2.22;38.76;99676.53;5050785;28;20029;-38
2022/01/22 11:48:28;;;;;;;4.38;2.55;;;;;;;1.79;39.54;99672.84;5051283;28;20032;-37
2022/01/22 11:50:56;;;;;;;5.25;2.55;;;;;;;1.79;39.49;99670.22;5050643;28;20024;-38
2022/01/22 11:53:26;;;;;;;4.43;2.80;;;;;;;2.23;38.54;99664.22;5051204;28;20032;-38
2022/01/22 11:56:12;;;;;;;10.90;5.75;;;;;;;2.27;38.66;99666.41;5049063;28;20028;-39
2022/01/22 11:58:56;;;;;;;7.10;3.10;;;;;;;2.06;38.35;99655.41;5050985;28;20048;-38
2022/01/22 12:01:41;;;;;;;4.18;2.28;;;;;;;2.10;38.72;99654.13;5050903;28;20072;-38
2022/01/22 12:04:11;;;;;;;4.28;2.72;;;;;;;2.04;38.65;99652.09;5050923;28;20057;-38
2022/01/22 12:06:37;;;;;;;4.35;2.42;;;;;;;1.86;37.84;99650.28;5050507;28;20033;-37
2022/01/22 12:09:12;;;;;;;3.80;2.05;;;;;;;1.77;37.02;99645.91;5050479;28;20057;-37
2022/01/22 12:14:49;;;;;;;5.05;2.30;;;;;;;2.20;37.78;99648.78;5050481;28;20113;-37
2022/01/22 12:17:24;;;;;;;3.60;2.22;;;;;;;2.33;37.42;99649.22;5050092;28;20033;-37
2022/01/22 12:22:31;;;;;;;3.15;2.17;;;;;;;2.98;36.20;99648.78;5050521;28;20016;-37
2022/01/22 12:25:00;;;;;;;4.55;2.20;;;;;;;3.47;35.12;99651.63;5050405;28;20036;-38
2022/01/22 12:27:48;;;;;;;5.22;2.17;;;;;;;2.93;36.34;99656.31;5049469;28;20049;-38
2022/01/22 12:30:14;;;;;;;4.65;2.45;;;;;;;3.07;35.96;99647.03;5050191;28;20031;-38
2022/01/22 12:32:50;;;;;;;5.35;3.00;;;;;;;3.01;34.94;99653.75;5049210;28;20028;-37
2022/01/22 12:35:31;;;;;;;6.70;2.55;;;;;;;2.61;34.94;99655.16;5050039;28;20028;-37
2022/01/22 12:38:13;;;;;;;3.65;1.90;;;;;;;2.60;35.77;99645.63;5049111;28;20044;-37
2022/01/22 12:40:38;;;;;;;4.70;2.30;;;;;;;2.50;35.78;99653.59;5049975;28;20479;-38
2022/01/22 12:43:10;;;;;;;5.63;2.35;;;;;;;2.43;36.60;99649.94;5050324;28;20064;-37
2022/01/22 12:45:36;;;;;;;4.90;2.60;;;;;;;2.56;36.55;99651.34;5049654;28;20017;-38
2022/01/22 12:48:02;;;;;;;5.40;2.50;;;;;;;2.72;36.24;99644.41;5050172;28;20021;-38
2022/01/22 12:50:31;;;;;;;4.60;2.60;;;;;;;2.78;35.71;99648.22;5050212;28;20017;-38
2022/01/22 12:53:02;;;;;;;4.75;2.25;;;;;;;2.79;35.24;99649.03;5051041;28;20032;-38
2022/01/22 12:55:49;;;;;;;5.80;3.08;;;;;;;2.77;36.33;99643.09;5050628;28;20106;-37
2022/01/22 12:58:29;;;;;;;4.70;2.45;;;;;;;2.53;35.89;99655.09;5049002;28;20435;-52
2022/01/22 13:01:07;;;;;;;4.13;2.67;;;;;;;2.59;36.36;99658.91;5049731;28;20068;-49
2022/01/22 13:03:37;;;;;;;3.35;2.20;;;;;;;2.69;35.90;99668.34;5050035;28;20025;-52
2022/01/22 13:06:03;;;;;;;3.80;2.30;;;;;;;2.15;36.46;99657.94;5049946;28;20024;-49
2022/01/22 13:08:29;;;;;;;5.32;2.50;;;;;;;2.24;35.87;99653.56;5049431;28;20110;-52
2022/01/22 13:10:56;;;;;;;3.17;2.10;;;;;;;2.20;36.81;99657.47;5049292;28;20035;-49